Time;durP1;ratioP1;P1;durP2;ratioP2;P2;SDS_P1;SDS_P2;PMS_P1;PMS_P2;Temp;Humidity;BMP_temperature;BMP_pressure;BME280_temperature;BME280_humidity;BME280_pressure;Samples;Min_cycle;Max_cycle;Signal;HPM_P1;HPM_P2
2020/12/19 00:01:30;;;;;;;65.90;36.43;;;;;;;4.20;82.92;101229.55;126656;1098;104577;-78
2020/12/19 00:03:58;;;;;;;66.57;37.83;;;;;;;4.16;83.47;101227.80;126672;1093;104209;-79
2020/12/19 00:06:26;;;;;;;68.23;39.20;;;;;;;4.13;83.60;101232.94;126697;1093;104482;-78
2020/12/19 00:08:54;;;;;;;66.73;36.53;;;;;;;4.10;82.76;101225.14;126493;1099;104523;-78
2020/12/19 00:11:21;;;;;;;64.95;36.65;;;;;;;4.06;82.92;101220.81;126661;1093;104394;-79
2020/12/19 00:13:49;;;;;;;62.17;35.90;;;;;;;4.02;83.52;101219.05;126640;1099;104535;-78
2020/12/19 00:16:17;;;;;;;64.30;37.20;;;;;;;3.96;83.51;101213.84;126458;1100;103603;-78
2020/12/19 00:18:45;;;;;;;68.20;36.67;;;;;;;3.92;83.60;101215.50;126488;1099;104497;-79
2020/12/19 00:21:12;;;;;;;63.00;35.73;;;;;;;3.89;83.21;101218.05;126517;1098;103079;-78
2020/12/19 00:23:40;;;;;;;57.07;34.13;;;;;;;3.85;83.71;101220.59;126446;1096;104375;-78
2020/12/19 00:26:07;;;;;;;62.90;36.40;;;;;;;3.79;83.08;101210.22;126711;1098;104567;-78
2020/12/19 00:28:34;;;;;;;58.07;34.30;;;;;;;3.76;83.68;101217.89;126761;1098;104497;-79
2020/12/19 00:31:02;;;;;;;62.60;36.10;;;;;;;3.73;83.46;101215.28;126762;1098;104373;-79
2020/12/19 00:33:29;;;;;;;70.67;37.53;;;;;;;3.70;83.81;101217.84;126690;1098;105971;-78
2020/12/19 00:35:56;;;;;;;68.03;36.43;;;;;;;3.65;83.69;101220.37;126677;1098;104386;-79
2020/12/19 00:38:24;;;;;;;64.90;37.95;;;;;;;3.60;83.90;101219.46;126459;1097;104596;-79
2020/12/19 00:40:58;;;;;;;72.13;38.10;;;;;;;3.57;84.07;101220.27;126472;1094;103769;-79
2020/12/19 00:43:25;;;;;;;61.90;36.00;;;;;;;3.53;84.16;101213.34;126440;1099;104429;-79
2020/12/19 00:45:53;;;;;;;68.67;41.03;;;;;;;3.50;84.35;101220.19;126647;1098;104525;-78
2020/12/19 00:48:20;;;;;;;66.70;37.83;;;;;;;3.48;84.01;101220.17;126647;1098;104599;-78
2020/12/19 00:50:47;;;;;;;71.07;40.27;;;;;;;3.46;84.46;101214.13;126679;1098;104186;-78
2020/12/19 00:53:15;;;;;;;75.67;42.40;;;;;;;3.42;84.15;101214.95;126507;1093;104502;-78
2020/12/19 00:55:43;;;;;;;75.57;42.50;;;;;;;3.41;84.20;101213.22;126500;1093;104530;-79
2020/12/19 00:58:10;;;;;;;71.93;41.93;;;;;;;3.37;84.26;101210.55;126526;1099;104378;-78
2020/12/19 01:00:38;;;;;;;68.67;39.30;;;;;;;3.34;84.54;101211.39;126644;1093;104528;-78
2020/12/19 01:03:05;;;;;;;70.17;39.70;;;;;;;3.29;84.35;101206.18;126592;1093;104984;-78
2020/12/19 01:05:32;;;;;;;79.63;43.73;;;;;;;3.28;84.72;101203.59;126651;1093;104436;-79
2020/12/19 01:08:00;;;;;;;72.45;40.50;;;;;;;3.27;84.78;101205.30;126676;1093;104436;-79
2020/12/19 01:10:27;;;;;;;64.07;36.90;;;;;;;3.23;84.73;101202.64;126682;1098;104358;-79
2020/12/19 01:12:55;;;;;;;72.77;39.27;;;;;;;3.20;84.28;101205.19;126421;1100;104372;-78
2020/12/19 01:15:22;;;;;;;73.60;39.57;;;;;;;3.17;84.58;101202.57;126558;1093;104390;-79
2020/12/19 01:17:49;;;;;;;69.27;39.70;;;;;;;3.14;84.88;101207.69;126433;1093;104525;-78
2020/12/19 01:20:18;;;;;;;67.53;38.77;;;;;;;3.12;84.79;101201.65;126721;1093;104378;-79
2020/12/19 01:22:45;;;;;;;70.20;39.60;;;;;;;3.11;84.30;101202.50;126441;1093;104497;-79
2020/12/19 01:25:12;;;;;;;71.53;40.53;;;;;;;3.09;84.51;101202.48;126656;1098;104430;-79
2020/12/19 01:27:39;;;;;;;66.40;38.10;;;;;;;3.08;84.80;101203.33;126401;1093;104887;-79
2020/12/19 01:30:07;;;;;;;73.33;41.60;;;;;;;3.08;85.10;101202.46;126537;1100;104372;-78
2020/12/19 01:32:34;;;;;;;73.53;41.17;;;;;;;3.07;85.13;101200.73;126588;1093;104375;-79
2020/12/19 01:35:02;;;;;;;70.13;38.23;;;;;;;3.04;84.41;101202.39;126661;1093;102606;-78
2020/12/19 01:37:30;;;;;;;75.27;42.97;;;;;;;3.04;85.14;101202.39;126588;1093;104503;-78
2020/12/19 01:39:58;;;;;;;76.67;39.47;;;;;;;3.02;84.81;101188.63;126671;1098;104419;-78
2020/12/19 01:42:25;;;;;;;71.12;39.55;;;;;;;3.01;84.95;101186.89;126701;1093;104359;-79
2020/12/19 01:44:52;;;;;;;69.30;37.93;;;;;;;2.97;84.78;101195.44;126653;1098;104394;-78
2020/12/19 01:47:22;;;;;;;68.00;38.53;;;;;;;2.95;84.58;101191.97;126681;1098;104961;-79
2020/12/19 01:49:49;;;;;;;72.60;40.03;;;;;;;2.94;85.03;101189.37;126406;1099;104538;-79
2020/12/19 01:52:20;;;;;;;74.30;41.10;;;;;;;2.92;85.31;101197.09;126627;1099;104368;-78
2020/12/19 01:54:49;;;;;;;77.03;41.03;;;;;;;2.92;85.11;101197.09;126698;1098;104601;-78
2020/12/19 01:57:18;;;;;;;78.97;42.17;;;;;;;2.90;84.70;101193.63;126513;1094;104381;-79
2020/12/19 01:59:45;;;;;;;75.00;41.37;;;;;;;2.89;84.77;101191.90;126562;1098;103298;-78
2020/12/19 02:02:16;;;;;;;71.23;39.73;;;;;;;2.87;85.13;101177.23;126597;1098;104557;-78
2020/12/19 02:04:44;;;;;;;74.00;41.33;;;;;;;2.85;85.42;101176.35;126461;1100;104497;-78
2020/12/19 02:07:11;;;;;;;73.63;40.87;;;;;;;2.83;84.97;101171.18;126434;1098;104413;-78
2020/12/19 02:09:40;;;;;;;78.30;43.38;;;;;;;2.82;84.75;101182.33;126459;1093;104455;-79
2020/12/19 02:12:09;;;;;;;81.57;47.53;;;;;;;2.81;85.03;101180.60;126464;1100;104400;-78
2020/12/19 02:14:40;;;;;;;115.57;65.60;;;;;;;2.81;85.51;101175.45;126714;1098;104637;-79
2020/12/19 02:17:12;;;;;;;88.10;50.63;;;;;;;2.80;85.53;101190.89;126545;1093;104938;-78
2020/12/19 02:19:42;;;;;;;92.40;53.00;;;;;;;2.75;85.00;101182.23;126479;1100;104423;-79
2020/12/19 02:22:10;;;;;;;86.70;49.10;;;;;;;2.69;85.27;101178.73;126507;1093;104499;-78
2020/12/19 02:24:37;;;;;;;84.20;45.10;;;;;;;2.63;84.99;101178.63;126709;1093;104548;-79
2020/12/19 02:27:05;;;;;;;74.73;43.60;;;;;;;2.55;85.38;101174.22;126613;1099;104577;-78
2020/12/19 02:29:33;;;;;;;81.00;48.13;;;;;;;2.47;85.33;101166.35;126425;1100;104430;-79
2020/12/19 02:32:02;;;;;;;83.33;47.40;;;;;;;2.39;85.25;101173.11;126456;1100;104439;-79
2020/12/19 02:34:30;;;;;;;87.13;47.43;;;;;;;2.33;85.16;101173.85;126645;1093;104427;-78
2020/12/19 02:36:57;;;;;;;85.33;47.77;;;;;;;2.27;85.32;101170.32;126470;1099;104208;-79
2020/12/19 02:39:25;;;;;;;87.13;48.37;;;;;;;2.19;85.92;101180.50;126632;1098;104399;-79
2020/12/19 02:41:52;;;;;;;85.47;50.97;;;;;;;2.12;85.55;101170.93;126521;1098;104411;-78
2020/12/19 02:44:21;;;;;;;87.50;49.47;;;;;;;2.07;85.45;101180.29;126437;1096;104439;-78
2020/12/19 02:46:49;;;;;;;83.73;46.03;;;;;;;2.03;85.92;101183.66;126695;1099;104368;-78
2020/12/19 02:49:17;;;;;;;84.80;47.50;;;;;;;1.98;85.60;101187.86;126646;1098;104403;-78
2020/12/19 02:51:44;;;;;;;81.97;46.63;;;;;;;1.92;85.69;101187.73;126629;1093;104551;-78
2020/12/19 02:54:12;;;;;;;86.90;44.03;;;;;;;1.84;85.55;101187.61;126485;1100;104398;-81
2020/12/19 02:56:39;;;;;;;94.03;44.73;;;;;;;1.75;85.60;101183.14;126684;1098;104445;-78
2020/12/19 02:59:07;;;;;;;91.97;43.33;;;;;;;1.66;85.70;101182.98;126671;1098;104916;-77
2020/12/19 03:01:34;;;;;;;95.47;44.10;;;;;;;1.58;85.22;101179.38;126440;1097;104503;-79
2020/12/19 03:04:04;;;;;;;73.97;42.07;;;;;;;1.49;85.21;101184.36;126665;1098;104732;-78
2020/12/19 03:06:34;;;;;;;90.13;43.43;;;;;;;1.39;85.76;101191.02;126521;1096;104366;-79
2020/12/19 03:09:03;;;;;;;82.13;42.60;;;;;;;1.33;85.77;101187.46;126559;1093;104269;-78
2020/12/19 03:11:31;;;;;;;93.00;43.87;;;;;;;1.26;86.15;101181.34;126449;1100;104465;-79
2020/12/19 03:13:59;;;;;;;86.47;42.97;;;;;;;1.21;85.95;101188.93;126630;1098;104549;-78
2020/12/19 03:16:26;;;;;;;95.97;41.03;;;;;;;1.17;85.95;101181.13;126654;1098;104439;-79
2020/12/19 03:18:54;;;;;;;81.77;39.90;;;;;;;1.12;85.93;101180.18;126494;1100;104373;-78
2020/12/19 03:21:21;;;;;;;79.03;37.60;;;;;;;1.05;85.71;101181.73;126521;1093;104850;-78
2020/12/19 03:23:49;;;;;;;75.37;38.50;;;;;;;0.98;85.90;101176.45;126697;1098;104436;-78
2020/12/19 03:26:17;;;;;;;82.93;40.23;;;;;;;0.94;85.82;101180.66;126501;1093;104708;-79
2020/12/19 03:28:44;;;;;;;87.37;41.37;;;;;;;0.91;86.09;101178.02;126675;1093;104515;-79
2020/12/19 03:31:12;;;;;;;105.17;41.20;;;;;;;0.87;86.40;101181.33;126446;1093;104974;-79
2020/12/19 03:33:39;;;;;;;84.13;42.00;;;;;;;0.84;86.37;101178.70;126652;1098;104496;-78
2020/12/19 03:36:07;;;;;;;94.70;42.50;;;;;;;0.81;86.28;101173.50;126463;1100;102002;-78
2020/12/19 03:38:34;;;;;;;84.83;42.90;;;;;;;0.80;86.48;101175.20;126452;1094;104462;-79
2020/12/19 03:41:01;;;;;;;81.50;44.50;;;;;;;0.77;86.70;101171.70;126642;1093;105569;-78
2020/12/19 03:43:29;;;;;;;97.63;44.60;;;;;;;0.76;86.79;101167.41;126627;1098;104401;-78
2020/12/19 03:45:56;;;;;;;92.93;45.87;;;;;;;0.74;86.83;101169.08;126612;1099;103284;-79
2020/12/19 03:48:23;;;;;;;73.37;41.40;;;;;;;0.69;86.82;101161.25;126661;1093;104532;-77
2020/12/19 03:50:51;;;;;;;93.20;44.07;;;;;;;0.66;86.69;101160.32;126654;1093;104490;-79
2020/12/19 03:53:18;;;;;;;106.87;45.33;;;;;;;0.63;86.80;101157.69;126423;1093;104522;-79
2020/12/19 03:55:46;;;;;;;108.80;46.13;;;;;;;0.60;87.15;101156.79;126680;1098;104850;-78
2020/12/19 03:58:14;;;;;;;105.60;45.50;;;;;;;0.59;86.92;101159.33;126655;1099;104532;-78
2020/12/19 04:00:42;;;;;;;97.77;43.70;;;;;;;0.56;86.87;101154.99;126645;1099;104500;-79
2020/12/19 04:03:09;;;;;;;122.78;46.77;;;;;;;0.52;87.00;101142.89;126548;1098;104622;-79
2020/12/19 04:05:36;;;;;;;106.03;47.47;;;;;;;0.51;87.05;101146.30;126588;1098;104365;-78
2020/12/19 04:08:03;;;;;;;110.73;46.03;;;;;;;0.50;87.31;101144.56;126663;1093;104506;-78
2020/12/19 04:10:31;;;;;;;118.63;49.17;;;;;;;0.50;87.19;101148.83;126741;1098;104510;-79
2020/12/19 04:12:58;;;;;;;199.80;50.70;;;;;;;0.49;87.55;101145.39;126787;1094;104375;-78
2020/12/19 04:15:25;;;;;;;130.53;50.07;;;;;;;0.47;87.28;101147.06;126671;1093;104254;-78
2020/12/19 04:17:55;;;;;;;150.03;47.97;;;;;;;0.45;87.58;101146.16;126640;1098;104427;-78
2020/12/19 04:20:22;;;;;;;111.57;45.87;;;;;;;0.42;87.35;101140.97;126477;1093;104894;-79
2020/12/19 04:22:50;;;;;;;143.40;48.77;;;;;;;0.40;87.32;101140.07;126659;1098;103980;-79
2020/12/19 04:25:17;;;;;;;171.33;49.30;;;;;;;0.36;87.71;101138.27;126413;1099;104538;-79
2020/12/19 04:27:45;;;;;;;149.80;47.17;;;;;;;0.32;87.63;101139.00;126409;1093;104507;-78
2020/12/19 04:30:12;;;;;;;125.57;47.13;;;;;;;0.28;87.49;101130.38;126654;1098;105858;-78
2020/12/19 04:32:40;;;;;;;131.43;47.00;;;;;;;0.23;87.74;101134.54;126633;1098;104525;-78
2020/12/19 04:35:08;;;;;;;133.70;48.40;;;;;;;0.21;87.50;101137.90;126466;1099;103272;-78
2020/12/19 04:37:36;;;;;;;151.57;50.20;;;;;;;0.20;87.62;101143.86;126409;1097;104676;-79
2020/12/19 04:40:04;;;;;;;118.87;48.57;;;;;;;0.19;87.40;101137.00;126397;1098;104579;-78
2020/12/19 04:42:36;;;;;;;128.90;48.30;;;;;;;0.17;87.65;101136.06;126755;1093;104493;-79
2020/12/19 04:45:05;;;;;;;94.83;46.20;;;;;;;0.18;87.79;101142.93;126673;1093;104480;-79
2020/12/19 04:47:32;;;;;;;119.50;51.47;;;;;;;0.16;87.69;101140.33;126646;1098;104536;-79
2020/12/19 04:50:00;;;;;;;131.83;54.43;;;;;;;0.17;88.01;101134.37;126523;1099;104218;-78
2020/12/19 04:52:28;;;;;;;116.03;55.57;;;;;;;0.18;87.76;101140.37;126601;1093;104490;-79
2020/12/19 04:54:55;;;;;;;131.90;57.07;;;;;;;0.19;87.82;101137.87;126680;1098;104389;-78
2020/12/19 04:57:23;;;;;;;157.73;58.43;;;;;;;0.20;88.00;101144.73;126638;1099;104387;-79
2020/12/19 04:59:50;;;;;;;154.77;55.53;;;;;;;0.21;88.08;101140.47;126682;1098;104452;-79
2020/12/19 05:02:18;;;;;;;127.90;55.30;;;;;;;0.21;88.08;101137.90;126429;1098;105719;-78
2020/12/19 05:04:45;;;;;;;153.73;57.00;;;;;;;0.19;88.00;101135.30;126617;1098;104311;-78
2020/12/19 05:07:14;;;;;;;159.80;57.83;;;;;;;0.21;88.35;101135.34;126472;1098;104830;-78
2020/12/19 05:09:44;;;;;;;158.20;54.77;;;;;;;0.22;88.61;101137.94;126545;1093;106592;-78
2020/12/19 05:12:13;;;;;;;127.27;55.03;;;;;;;0.24;88.50;101130.27;126453;1093;104408;-79
2020/12/19 05:14:41;;;;;;;136.83;55.17;;;;;;;0.25;88.36;101139.70;126443;1098;104560;-78
2020/12/19 05:17:08;;;;;;;152.27;51.80;;;;;;;0.26;88.77;101131.17;126601;1098;104519;-78
2020/12/19 05:19:37;;;;;;;209.90;54.67;;;;;;;0.26;88.62;101137.17;126657;1098;104472;-78
2020/12/19 05:22:04;;;;;;;217.57;54.47;;;;;;;0.26;88.96;101131.17;126669;1093;104348;-79
2020/12/19 05:24:37;;;;;;;154.37;50.57;;;;;;;0.28;88.82;101137.20;126454;1100;104538;-79
2020/12/19 05:27:05;;;;;;;127.70;49.35;;;;;;;0.29;89.12;101131.23;126641;1098;104559;-79
2020/12/19 05:29:36;;;;;;;132.63;51.47;;;;;;;0.29;88.95;101131.23;126552;1093;104449;-78
2020/12/19 05:32:05;;;;;;;192.47;54.03;;;;;;;0.30;88.85;101131.27;126659;1093;104385;-78
2020/12/19 05:34:33;;;;;;;124.60;52.10;;;;;;;0.32;88.90;101139.00;126668;1093;104455;-79
2020/12/19 05:37:01;;;;;;;123.80;53.47;;;;;;;0.34;88.91;101145.03;126701;1098;104424;-78
2020/12/19 05:39:29;;;;;;;154.97;53.83;;;;;;;0.35;89.08;101135.64;126397;1093;104378;-79
2020/12/19 05:41:56;;;;;;;144.40;52.57;;;;;;;0.34;89.08;101132.20;126682;1093;104449;-78
2020/12/19 05:44:24;;;;;;;157.70;52.70;;;;;;;0.34;89.22;101137.34;126498;1099;105008;-78
2020/12/19 05:46:51;;;;;;;154.17;51.33;;;;;;;0.34;89.28;101134.77;126389;1098;104382;-79
2020/12/19 05:49:21;;;;;;;134.80;49.50;;;;;;;0.32;88.79;101133.88;126441;1098;104948;-79
2020/12/19 05:51:53;;;;;;;143.00;48.73;;;;;;;0.29;89.04;101138.94;126494;1093;103184;-79
2020/12/19 05:54:22;;;;;;;156.07;49.97;;;;;;;0.26;89.24;101129.47;126489;1100;104493;-79
2020/12/19 05:56:53;;;;;;;196.63;48.63;;;;;;;0.26;89.57;101142.30;126636;1098;104541;-79
2020/12/19 05:59:20;;;;;;;177.50;47.70;;;;;;;0.25;89.57;101127.74;126645;1100;104442;-79
2020/12/19 06:01:50;;;;;;;146.07;47.97;;;;;;;0.26;89.87;101128.61;126675;1098;104452;-79
2020/12/19 06:04:19;;;;;;;129.20;46.33;;;;;;;0.26;89.77;101133.73;126441;1100;104814;-79
2020/12/19 06:06:47;;;;;;;137.00;47.10;;;;;;;0.25;90.06;101126.88;126426;1099;104388;-79
2020/12/19 06:09:16;;;;;;;135.40;47.67;;;;;;;0.25;89.73;101132.88;126697;1098;104413;-80
2020/12/19 06:11:48;;;;;;;117.47;46.27;;;;;;;0.27;89.72;101138.03;126445;1100;104853;-79
2020/12/19 06:14:20;;;;;;;130.07;48.40;;;;;;;0.27;89.80;101132.91;126744;1098;104378;-79
2020/12/19 06:16:52;;;;;;;132.33;48.03;;;;;;;0.27;90.00;101144.03;126629;1099;104500;-79
2020/12/19 06:19:20;;;;;;;108.50;45.67;;;;;;;0.29;90.08;101136.38;126364;1097;104352;-79
2020/12/19 06:21:58;;;;;;;160.67;46.47;;;;;;;0.30;89.92;101138.10;126641;1099;104381;-78
2020/12/19 06:24:48;;;;;;;132.50;45.80;;;;;;;0.29;90.14;101134.67;126695;1093;104438;-78
2020/12/19 06:27:22;;;;;;;133.40;47.10;;;;;;;0.31;90.09;101132.14;126718;1093;104430;-78
2020/12/19 06:29:51;;;;;;;142.67;45.97;;;;;;;0.29;89.90;101128.67;126607;1098;104416;-78
2020/12/19 06:32:21;;;;;;;105.13;42.80;;;;;;;0.28;90.05;101138.07;126439;1093;104490;-79
2020/12/19 06:35:05;;;;;;;125.70;43.03;;;;;;;0.27;89.85;101145.73;126681;1098;104833;-79
2020/12/19 06:37:35;;;;;;;108.07;44.67;;;;;;;0.27;89.94;101138.03;126507;1092;104282;-78
2020/12/19 06:40:20;;;;;;;135.47;46.27;;;;;;;0.26;90.25;101139.73;126465;1100;104381;-78
2020/12/19 06:43:11;;;;;;;115.23;43.97;;;;;;;0.26;90.29;101138.87;126662;1093;104413;-78
2020/12/19 06:45:38;;;;;;;105.97;43.40;;;;;;;0.25;90.21;101155.96;126672;1098;104539;-78
2020/12/19 06:48:41;;;;;;;108.00;44.55;;;;;;;0.24;89.89;101141.40;126681;1098;104410;-79
2020/12/19 06:51:09;;;;;;;103.23;44.70;;;;;;;0.25;90.07;101145.70;126369;1101;104667;-78
2020/12/19 06:53:36;;;;;;;103.07;43.07;;;;;;;0.27;89.92;101158.56;126368;1101;104580;-78
2020/12/19 06:56:27;;;;;;;104.55;45.23;;;;;;;0.27;90.00;101148.30;126290;1097;104436;-79
2020/12/19 06:59:01;;;;;;;95.80;44.67;;;;;;;0.29;89.51;101167.16;126295;1101;104666;-79
2020/12/19 07:01:30;;;;;;;86.07;43.77;;;;;;;0.32;89.73;101169.80;126321;1101;104503;-79
2020/12/19 07:03:57;;;;;;;88.03;45.60;;;;;;;0.33;89.30;101171.53;126346;1097;104497;-78
2020/12/19 07:06:25;;;;;;;93.57;44.60;;;;;;;0.33;89.38;101179.22;126351;1097;104584;-78
2020/12/19 07:08:52;;;;;;;88.65;43.75;;;;;;;0.32;89.33;101177.49;126295;1101;103268;-78
2020/12/19 07:11:40;;;;;;;91.77;42.13;;;;;;;0.29;88.92;101182.55;126072;1102;104449;-79
2020/12/19 07:14:15;;;;;;;86.23;42.57;;;;;;;0.29;88.83;101185.13;126433;1096;106372;-79
2020/12/19 07:16:51;;;;;;;84.50;41.87;;;;;;;0.29;88.75;101185.13;126322;1097;104497;-79
2020/12/19 07:19:25;;;;;;;77.03;40.07;;;;;;;0.33;88.70;101191.19;126332;1101;104564;-78
2020/12/19 07:21:54;;;;;;;79.93;40.50;;;;;;;0.37;88.47;101182.76;126373;1101;104488;-79
2020/12/19 07:24:22;;;;;;;78.77;41.20;;;;;;;0.40;88.25;101180.27;126403;1096;104439;-79
2020/12/19 07:26:51;;;;;;;73.33;37.03;;;;;;;0.44;88.09;101179.50;126706;1096;104517;-78
2020/12/19 07:29:23;;;;;;;74.40;39.47;;;;;;;0.47;87.89;101175.30;126611;1093;104619;-79
2020/12/19 07:32:00;;;;;;;76.53;38.90;;;;;;;0.51;87.80;101174.53;126503;1100;104411;-78
2020/12/19 07:34:29;;;;;;;79.27;39.83;;;;;;;0.52;87.65;101167.70;126570;1093;104484;-79
2020/12/19 07:36:57;;;;;;;71.33;38.83;;;;;;;0.55;87.41;101168.66;126716;1094;104644;-79
2020/12/19 07:39:24;;;;;;;75.37;39.13;;;;;;;0.58;87.41;101183.27;126394;1100;104477;-79
2020/12/19 07:42:07;;;;;;;71.20;38.27;;;;;;;0.58;87.05;101178.12;126444;1094;104423;-79
2020/12/19 07:44:37;;;;;;;79.17;40.23;;;;;;;0.58;86.93;101168.73;126468;1100;104554;-79
2020/12/19 07:47:13;;;;;;;72.97;40.00;;;;;;;0.59;86.90;101170.45;126677;1098;104827;-79
2020/12/19 07:49:58;;;;;;;75.23;38.40;;;;;;;0.54;86.63;101177.20;126674;1099;104564;-79
2020/12/19 07:52:26;;;;;;;70.93;38.17;;;;;;;0.47;86.44;101177.86;126671;1100;104253;-78
2020/12/19 07:54:55;;;;;;;76.97;39.17;;;;;;;0.40;86.73;101162.30;126669;1098;104557;-78
2020/12/19 07:57:24;;;;;;;69.57;38.67;;;;;;;0.32;86.84;101185.19;126698;1098;104477;-78
2020/12/19 07:59:53;;;;;;;86.93;38.50;;;;;;;0.22;86.61;101185.81;126639;1093;104422;-79
2020/12/19 08:02:21;;;;;;;89.73;39.37;;;;;;;0.12;87.12;101184.70;126445;1098;104558;-79
2020/12/19 08:04:50;;;;;;;80.93;38.90;;;;;;;0.03;87.06;101181.92;126657;1093;104506;-78
2020/12/19 08:07:20;;;;;;;90.43;40.33;;;;;;;-0.03;87.35;101180.05;126692;1093;104436;-79
2020/12/19 08:09:48;;;;;;;74.50;37.40;;;;;;;-0.07;87.37;101180.80;126525;1098;102599;-78
2020/12/19 08:12:16;;;;;;;91.63;43.10;;;;;;;-0.08;87.79;101163.68;126461;1093;104433;-78
2020/12/19 08:14:45;;;;;;;82.77;41.70;;;;;;;-0.10;87.87;101167.91;126417;1094;104496;-79
2020/12/19 08:17:15;;;;;;;86.43;40.83;;;;;;;-0.13;88.02;101164.41;126661;1100;104429;-79
2020/12/19 08:19:47;;;;;;;89.10;41.23;;;;;;;-0.17;87.57;101171.16;126483;1098;104490;-79
2020/12/19 08:22:16;;;;;;;111.03;43.70;;;;;;;-0.20;88.14;101168.48;126540;1094;104461;-78
2020/12/19 08:24:58;;;;;;;101.83;42.17;;;;;;;-0.22;88.05;101172.70;126696;1093;104538;-79
2020/12/19 08:27:32;;;;;;;131.67;43.30;;;;;;;-0.27;87.84;101175.98;126665;1093;104400;-78
2020/12/19 08:30:17;;;;;;;117.40;43.73;;;;;;;-0.32;88.02;101170.75;126710;1098;104404;-79
2020/12/19 08:33:10;;;;;;;88.20;43.50;;;;;;;-0.33;88.20;101174.14;126666;1098;104430;-79
2020/12/19 08:35:44;;;;;;;86.87;44.23;;;;;;;-0.29;88.41;101181.08;126479;1098;103224;-78
2020/12/19 08:38:23;;;;;;;140.60;45.63;;;;;;;-0.24;88.71;101176.06;126667;1098;104433;-79
2020/12/19 08:41:02;;;;;;;94.67;44.27;;;;;;;-0.21;88.01;101171.88;126412;1097;104478;-79
2020/12/19 08:43:39;;;;;;;135.77;46.03;;;;;;;-0.16;88.44;101172.89;126669;1093;104461;-79
2020/12/19 08:46:10;;;;;;;142.20;46.45;;;;;;;-0.10;88.51;101172.17;126581;1098;104454;-79
2020/12/19 08:48:39;;;;;;;147.53;44.47;;;;;;;-0.08;88.03;101173.07;126493;1093;104390;-79
2020/12/19 08:51:15;;;;;;;150.83;45.57;;;;;;;-0.07;88.24;101167.98;126762;1098;103837;-80
2020/12/19 08:53:43;;;;;;;138.68;47.40;;;;;;;-0.06;87.91;101176.54;126668;1099;104487;-79
2020/12/19 08:56:18;;;;;;;154.77;45.07;;;;;;;-0.05;88.06;101168.88;126460;1099;104510;-79
2020/12/19 08:58:55;;;;;;;138.97;44.73;;;;;;;-0.04;87.83;101160.36;126486;1093;104381;-79
2020/12/19 09:01:24;;;;;;;152.30;45.30;;;;;;;-0.04;88.04;101169.75;126698;1099;104452;-79
2020/12/19 09:03:53;;;;;;;187.23;43.57;;;;;;;-0.06;88.12;101169.71;126757;1093;103569;-79
2020/12/19 09:06:21;;;;;;;130.40;43.93;;;;;;;-0.09;87.81;101164.52;126668;1098;104366;-78
2020/12/19 09:08:49;;;;;;;179.07;44.27;;;;;;;-0.09;88.44;101161.95;126662;1098;104462;-78
2020/12/19 09:11:25;;;;;;;116.83;44.80;;;;;;;-0.13;88.43;101155.02;126703;1093;104423;-78
2020/12/19 09:14:11;;;;;;;177.20;47.55;;;;;;;-0.14;87.91;101158.41;126490;1100;104391;-79
2020/12/19 09:16:47;;;;;;;151.15;48.10;;;;;;;-0.16;88.32;101154.08;126444;1093;104533;-79
2020/12/19 09:19:17;;;;;;;152.95;49.05;;;;;;;-0.14;88.85;101155.84;126637;1098;104433;-78
2020/12/19 09:21:58;;;;;;;167.83;47.20;;;;;;;-0.10;88.83;101146.53;126676;1098;104205;-78
2020/12/19 09:24:26;;;;;;;113.50;47.60;;;;;;;-0.05;88.47;101152.63;126672;1098;104882;-78
2020/12/19 09:26:54;;;;;;;120.40;46.83;;;;;;;-0.01;88.62;101155.30;126587;1093;104445;-78
2020/12/19 09:29:22;;;;;;;161.50;46.93;;;;;;;0.04;88.42;101152.02;126427;1099;104670;-79
2020/12/19 09:31:49;;;;;;;139.43;46.03;;;;;;;0.08;88.41;101149.55;126612;1093;104432;-77
2020/12/19 09:34:17;;;;;;;139.87;47.17;;;;;;;0.12;88.38;101155.62;126642;1098;104570;-78
2020/12/19 09:36:44;;;;;;;135.07;44.17;;;;;;;0.15;88.32;101158.25;126680;1098;104411;-78
2020/12/19 09:39:13;;;;;;;114.90;43.23;;;;;;;0.15;88.21;101153.13;126534;1100;104442;-78
2020/12/19 09:41:43;;;;;;;131.40;43.90;;;;;;;0.14;87.99;101161.65;126671;1093;104545;-78
2020/12/19 09:44:11;;;;;;;87.63;39.57;;;;;;;0.13;87.95;101157.35;126617;1093;104891;-78
2020/12/19 09:46:38;;;;;;;105.67;41.40;;;;;;;0.12;88.05;101163.31;126697;1098;104496;-79
2020/12/19 09:49:05;;;;;;;115.40;43.08;;;;;;;0.13;88.16;101165.05;126635;1093;104618;-79
2020/12/19 09:51:32;;;;;;;79.50;38.45;;;;;;;0.15;88.35;101155.69;126680;1099;104445;-78
2020/12/19 09:54:00;;;;;;;89.60;41.03;;;;;;;0.15;88.46;101159.12;126424;1100;104491;-78
2020/12/19 09:56:28;;;;;;;83.53;36.97;;;;;;;0.18;88.26;101171.15;126453;1093;104526;-78
2020/12/19 09:58:55;;;;;;;76.45;35.73;;;;;;;0.16;87.69;101168.55;126420;1099;104366;-78
2020/12/19 10:01:23;;;;;;;88.50;37.13;;;;;;;0.07;87.73;101164.91;126412;1093;104497;-79
2020/12/19 10:03:50;;;;;;;76.40;35.80;;;;;;;0.05;87.91;101169.13;126628;1100;104982;-79
2020/12/19 10:06:17;;;;;;;63.87;31.10;;;;;;;0.01;87.74;101162.20;126455;1093;104429;-78
2020/12/19 10:08:44;;;;;;;86.57;37.63;;;;;;;-0.04;87.88;101164.62;126402;1093;104848;-78
2020/12/19 10:11:12;;;;;;;82.70;35.53;;;;;;;-0.04;87.80;101164.62;126422;1099;104394;-79
2020/12/19 10:13:39;;;;;;;79.43;34.90;;;;;;;-0.05;87.97;101166.31;126648;1093;104439;-78
2020/12/19 10:16:06;;;;;;;84.47;36.23;;;;;;;-0.07;87.95;101165.41;126642;1093;104397;-78
2020/12/19 10:18:34;;;;;;;67.10;32.77;;;;;;;-0.11;87.61;101158.48;126510;1093;104654;-79
2020/12/19 10:21:06;;;;;;;68.23;34.27;;;;;;;-0.13;87.74;101160.14;126662;1098;104401;-78
2020/12/19 10:23:34;;;;;;;81.73;36.57;;;;;;;-0.13;88.14;101162.70;126442;1098;104500;-78
2020/12/19 10:26:02;;;;;;;65.33;33.00;;;;;;;-0.15;87.81;101160.94;126652;1100;104484;-78
2020/12/19 10:28:29;;;;;;;67.43;33.23;;;;;;;-0.19;87.99;101148.84;126606;1093;104478;-78
2020/12/19 10:30:57;;;;;;;66.27;33.87;;;;;;;-0.19;88.32;101148.84;126432;1099;104398;-78
2020/12/19 10:33:25;;;;;;;67.70;32.87;;;;;;;-0.23;88.04;101157.29;126486;1100;104445;-78
2020/12/19 10:35:53;;;;;;;59.83;29.53;;;;;;;-0.23;88.25;101152.16;126760;1098;104461;-78
2020/12/19 10:38:21;;;;;;;71.07;33.87;;;;;;;-0.25;88.21;101153.82;126467;1100;104369;-78
2020/12/19 10:40:58;;;;;;;81.53;35.07;;;;;;;-0.22;88.38;101162.45;126679;1098;104484;-78
2020/12/19 10:43:26;;;;;;;68.40;33.77;;;;;;;-0.21;88.01;101160.75;126648;1098;105071;-79
2020/12/19 10:45:53;;;;;;;70.87;32.60;;;;;;;-0.21;88.18;101156.49;126657;1098;104365;-78
2020/12/19 10:48:20;;;;;;;73.17;33.90;;;;;;;-0.19;88.57;101153.97;126618;1093;104417;-78
2020/12/19 10:50:47;;;;;;;68.57;32.73;;;;;;;-0.17;88.26;101162.59;126633;1098;104500;-80
2020/12/19 10:53:15;;;;;;;56.67;28.53;;;;;;;-0.18;87.86;101150.58;126564;1098;104530;-78
2020/12/19 10:55:43;;;;;;;59.47;29.20;;;;;;;-0.19;87.88;101159.09;126389;1099;104304;-78
2020/12/19 10:58:10;;;;;;;58.00;28.67;;;;;;;-0.23;87.93;101142.77;126460;1100;104472;-78
2020/12/19 11:00:37;;;;;;;62.73;32.43;;;;;;;-0.21;88.59;101137.69;126412;1093;104442;-79
2020/12/19 11:03:04;;;;;;;64.00;32.93;;;;;;;-0.18;88.42;101130.96;126633;1093;104430;-78
2020/12/19 11:05:31;;;;;;;57.70;30.10;;;;;;;-0.17;88.64;101142.09;126680;1098;104491;-77
2020/12/19 11:07:59;;;;;;;56.20;29.03;;;;;;;-0.18;87.96;101138.66;126609;1093;105571;-78